Potter, British Columbia

10:59 PM PDT on June 18, 2018 (GMT -0700)
Interlakes, BC | | Change Station
Active Advisory: Special Weather Statement

Elev 3767 ft 51.55 °N, 121.00 °W | Updated 5 seconds ago

Clear
Clear
54.9 °F
Feels Like 54.9 °F
N
0
Wind Variable Wind from SSE
Gusts 0.0 mph

Today
High -- | Low -- °F
--% Chance of Precip.
Yesterday
High -- | Low -- °F
Precip. -- in
Pressure 30.01 in
Visibility 9.0 miles
Clouds Mostly Cloudy 12000 ft
Dew Point 48 °F
Humidity 79%
Rainfall 0.00 in
Snow Depth Not available.
4:46 AM 9:25 PM
Waxing Crescent, 37% visible
METAR CYIN 190500Z AUTO 22002KT 9SM BKN120 17/07 A3007 RMK SLP162 DENSITY ALT 4600FT
Pressure 30.01 in
Visibility 9.0 miles
Clouds Mostly Cloudy 12000 ft
Dew Point 48 °F
Humidity 79%
Rainfall 0.00 in
Snow Depth Not available.
4:46 AM 9:25 PM
Waxing Crescent, 37% visible
METAR CYIN 190500Z AUTO 22002KT 9SM BKN120 17/07 A3007 RMK SLP162 DENSITY ALT 4600FT

Get Severe Weather Alerts

Thanks for signing up!

Be on the lookout for a verification email in your inbox.

You'll start receiving the daily forecast at 6 AM.

×

10-Day Weather Forecast

Almanac

Astronomy

Jun. 18, 2018 Rise Set
Actual Time
Civil Twilight
Nautical Twilight
Astronomical Twilight
Moon
Length of Visible Light
Length of Day
Tomorrow will be .
, % of the Moon is Illuminated

Today's Extremes

Country Highs Country Lows

Community

WunderPhotos

Category 6

Welcome to Category 6. This is the collective home for Weather Underground's featured writeups by Dr. Jeff Masters (right), Bob Henson (left), Chris Burt, and other regular contributors.

Nearby

Air Quality

  Air Quality AQ Index Pollutant
Not available.

Snow Depth

Station Depth Elevation

Earthquake Activity

City Distance Mag. Time & Date
Minimum magnitude displayed is 2.5.

Coastal Water Temperatures

Place Temperature

Stations

Nearby Weather Stations

Station Location Temp. Windchill Dew Point Humidity Wind Precip. Elev Updated Type
                   

Watches & Warnings

Special Weather Statement
Issued: Environment Canada
Special Weather Statement issued by Environment.  12:17 PM PDT Monday 18 June 2018.
A building ridge of high pressure will bring sunny and hot weather over the next few days. Daytime high temperatures will reach near 30C today in the Central Interior and near 35C in the Southwest Interior. The warm weather is expected to persist until Wednesday.

###

Please continue to monitor alerts and forecasts issued by Environment Canada. To report severe weather, send an email to BCstorm@canada.ca or tweet reports using #BCStorm.
expires_epoch:1529403409